Time;durP1;ratioP1;P1;durP2;ratioP2;P2;SDS_P1;SDS_P2;PMS_P1;PMS_P2;Temp;Humidity;BMP_temperature;BMP_pressure;BME280_temperature;BME280_humidity;BME280_pressure;Samples;Min_cycle;Max_cycle;Signal;HPM_P1;HPM_P2
2023/05/12 00:02:08;;;;;;;5.53;3.30;;;9.90;99.90;;;;;;5029082;28;20190;-68
2023/05/12 00:04:34;;;;;;;4.10;2.00;;;9.90;99.90;;;;;;5031594;28;20205;-68
2023/05/12 00:07:00;;;;;;;4.60;2.53;;;9.90;99.90;;;;;;5028392;28;20206;-68
2023/05/12 00:09:26;;;;;;;5.40;2.67;;;9.90;99.90;;;;;;5028336;28;20421;-68
2023/05/12 00:11:52;;;;;;;2.93;2.23;;;9.90;99.90;;;;;;5034701;28;20236;-68
2023/05/12 00:14:19;;;;;;;4.43;2.30;;;9.90;99.90;;;;;;5038631;28;20188;-68
2023/05/12 00:16:50;;;;;;;5.40;2.70;;;9.90;99.90;;;;;;5033014;28;20190;-68
2023/05/12 00:19:16;;;;;;;5.67;2.60;;;10.00;99.90;;;;;;5038431;28;20473;-68
2023/05/12 00:21:42;;;;;;;7.10;2.47;;;9.90;99.90;;;;;;5029927;28;20913;-68
2023/05/12 00:24:07;;;;;;;6.43;2.50;;;9.90;99.90;;;;;;5035490;28;20238;-68
2023/05/12 00:26:33;;;;;;;4.23;2.43;;;9.90;99.90;;;;;;5028746;28;20544;-68
2023/05/12 00:28:59;;;;;;;5.27;3.47;;;10.00;99.90;;;;;;5028828;28;20187;-68
2023/05/12 00:31:25;;;;;;;3.83;2.30;;;9.90;99.90;;;;;;5036134;28;20178;-68
2023/05/12 00:33:50;;;;;;;6.97;2.80;;;10.00;99.90;;;;;;5031168;28;20206;-67
2023/05/12 00:36:16;;;;;;;7.00;2.60;;;10.00;99.90;;;;;;5040210;28;20240;-68
2023/05/12 00:38:41;;;;;;;4.63;2.60;;;9.90;99.90;;;;;;5048565;28;20181;-67
2023/05/12 00:41:07;;;;;;;3.60;2.03;;;9.90;99.90;;;;;;5053606;28;20173;-68
2023/05/12 00:43:33;;;;;;;3.73;2.33;;;9.90;99.90;;;;;;5053500;28;20177;-68
2023/05/12 00:46:01;;;;;;;5.27;2.13;;;10.10;99.90;;;;;;5050796;28;20185;-68
2023/05/12 00:48:26;;;;;;;3.57;1.83;;;9.90;99.90;;;;;;5042170;28;20178;-67
2023/05/12 00:50:54;;;;;;;1.93;1.60;;;9.90;99.90;;;;;;5053204;28;20419;-70
2023/05/12 00:53:19;;;;;;;6.23;2.63;;;9.90;99.90;;;;;;5045192;28;20178;-69
2023/05/12 00:55:45;;;;;;;5.80;2.63;;;9.90;99.90;;;;;;5048341;28;20470;-69
2023/05/12 00:58:11;;;;;;;4.63;2.33;;;10.10;99.90;;;;;;5042307;28;20575;-69
2023/05/12 01:00:36;;;;;;;6.10;3.50;;;10.00;99.90;;;;;;5040196;28;20189;-68
2023/05/12 01:03:03;;;;;;;4.83;3.00;;;10.00;99.90;;;;;;5053048;28;20186;-68
2023/05/12 01:05:43;;;;;;;5.70;2.60;;;10.00;99.90;;;;;;5053078;28;20260;-68
2023/05/12 01:08:10;;;;;;;4.90;3.17;;;9.90;99.90;;;;;;5053377;28;20467;-69
2023/05/12 01:10:36;;;;;;;3.20;1.93;;;10.00;99.90;;;;;;5053135;28;20431;-69
2023/05/12 01:13:01;;;;;;;5.80;3.80;;;10.00;99.90;;;;;;5052670;28;20436;-68
2023/05/12 01:15:30;;;;;;;3.50;1.83;;;10.00;99.90;;;;;;5041460;28;20167;-68
2023/05/12 01:18:03;;;;;;;2.67;2.00;;;10.00;99.90;;;;;;5030122;28;20606;-69
2023/05/12 01:20:30;;;;;;;3.53;2.70;;;10.00;99.90;;;;;;5035123;28;20934;-68
2023/05/12 01:22:57;;;;;;;6.37;2.90;;;10.00;99.90;;;;;;5052676;28;20420;-68
2023/05/12 01:25:25;;;;;;;4.53;2.57;;;10.00;99.90;;;;;;5052873;28;20424;-70
2023/05/12 01:27:52;;;;;;;6.07;2.43;;;10.00;99.90;;;;;;5043465;28;20865;-69
2023/05/12 01:30:19;;;;;;;6.47;3.43;;;10.00;99.90;;;;;;5051421;28;20413;-69
2023/05/12 01:32:44;;;;;;;5.37;2.87;;;10.00;99.90;;;;;;5052195;28;20416;-71
2023/05/12 01:35:10;;;;;;;5.10;3.27;;;10.00;99.90;;;;;;5052201;28;20945;-69
2023/05/12 01:37:36;;;;;;;4.80;2.73;;;10.00;99.90;;;;;;5052783;28;20542;-69
2023/05/12 01:40:02;;;;;;;4.47;2.63;;;10.00;99.90;;;;;;5052336;28;20185;-69
2023/05/12 01:42:28;;;;;;;4.40;2.83;;;10.00;99.90;;;;;;5052560;28;20209;-69
2023/05/12 01:44:53;;;;;;;4.30;2.37;;;10.00;99.90;;;;;;5051147;28;20448;-69
2023/05/12 01:47:20;;;;;;;3.80;2.60;;;10.00;99.90;;;;;;5052698;28;20217;-69
2023/05/12 01:49:46;;;;;;;3.73;2.33;;;10.10;99.90;;;;;;5052330;28;20174;-69
2023/05/12 01:52:11;;;;;;;5.67;3.63;;;10.00;99.90;;;;;;5052171;28;20429;-69
2023/05/12 01:54:37;;;;;;;3.43;2.40;;;10.00;99.90;;;;;;5052154;28;20513;-69
2023/05/12 01:57:03;;;;;;;5.53;2.50;;;9.90;99.90;;;;;;5049372;28;20524;-69
2023/05/12 01:59:29;;;;;;;4.00;2.60;;;10.00;99.90;;;;;;5033370;28;20803;-69
2023/05/12 02:01:54;;;;;;;6.97;3.23;;;10.10;99.90;;;;;;5035257;28;20422;-69
2023/05/12 02:04:20;;;;;;;6.00;3.37;;;10.00;99.90;;;;;;5038935;28;20702;-69
2023/05/12 02:06:45;;;;;;;5.30;2.73;;;10.00;99.90;;;;;;5043969;28;20220;-69
2023/05/12 02:09:11;;;;;;;6.03;3.13;;;10.00;99.90;;;;;;5031278;28;20190;-69
2023/05/12 02:11:37;;;;;;;6.37;3.47;;;10.00;99.90;;;;;;5030544;28;20202;-69
2023/05/12 02:14:03;;;;;;;5.03;3.80;;;10.00;99.90;;;;;;5038543;28;20520;-69
2023/05/12 02:16:28;;;;;;;5.57;3.13;;;10.00;99.90;;;;;;5031751;28;20174;-69
2023/05/12 02:18:54;;;;;;;7.10;3.47;;;10.00;99.90;;;;;;5028654;28;20803;-69
2023/05/12 02:21:19;;;;;;;5.27;2.87;;;10.00;99.90;;;;;;5043779;28;20193;-69
2023/05/12 02:23:45;;;;;;;6.07;2.93;;;10.00;99.90;;;;;;5051474;28;20243;-69
2023/05/12 02:26:10;;;;;;;5.00;2.70;;;10.00;99.90;;;;;;5051725;28;20735;-67
2023/05/12 02:28:36;;;;;;;4.60;2.50;;;10.10;99.90;;;;;;5040010;28;20278;-67
2023/05/12 02:31:02;;;;;;;4.57;2.50;;;10.00;99.90;;;;;;5050689;28;20915;-67
2023/05/12 02:33:28;;;;;;;4.57;2.40;;;10.10;99.90;;;;;;5051308;28;20662;-68
2023/05/12 02:35:55;;;;;;;3.17;1.97;;;9.90;99.90;;;;;;5051390;28;20239;-68
2023/05/12 02:38:21;;;;;;;5.67;2.63;;;10.10;99.90;;;;;;5051382;28;20424;-68
2023/05/12 02:40:46;;;;;;;12.40;3.40;;;10.10;99.90;;;;;;5051414;28;20474;-68
2023/05/12 02:43:12;;;;;;;7.33;3.73;;;10.10;99.90;;;;;;5051089;28;20532;-68
2023/05/12 02:45:38;;;;;;;5.70;3.40;;;10.10;99.90;;;;;;5049028;28;20186;-68
2023/05/12 02:48:04;;;;;;;6.63;3.30;;;10.20;99.90;;;;;;5051127;28;20255;-68
2023/05/12 02:50:30;;;;;;;4.00;2.57;;;10.10;99.90;;;;;;5050921;28;20470;-68
2023/05/12 02:52:56;;;;;;;6.17;3.53;;;10.10;99.90;;;;;;5050678;28;20972;-68
2023/05/12 02:55:21;;;;;;;6.20;3.83;;;10.00;99.90;;;;;;5051239;28;20182;-68
2023/05/12 02:57:47;;;;;;;5.60;3.70;;;10.00;99.90;;;;;;5039231;28;20189;-68
2023/05/12 03:00:13;;;;;;;6.63;3.60;;;10.00;99.90;;;;;;5031061;28;20209;-68
2023/05/12 03:02:39;;;;;;;5.40;3.87;;;10.00;99.90;;;;;;5047575;28;20217;-68
2023/05/12 03:05:05;;;;;;;7.47;3.70;;;10.00;99.90;;;;;;5050648;28;20469;-68
2023/05/12 03:07:31;;;;;;;5.40;2.90;;;10.00;99.90;;;;;;5050789;28;20712;-68
2023/05/12 03:09:57;;;;;;;5.57;3.30;;;10.10;99.90;;;;;;5051090;28;20494;-68
2023/05/12 03:12:23;;;;;;;6.30;3.47;;;10.10;99.90;;;;;;5050683;28;20186;-68
2023/05/12 03:14:48;;;;;;;5.30;3.13;;;10.00;99.90;;;;;;5044917;28;20191;-68
2023/05/12 03:17:14;;;;;;;5.37;2.93;;;10.10;99.90;;;;;;5028122;28;20437;-68
2023/05/12 03:19:40;;;;;;;5.37;3.00;;;10.10;99.90;;;;;;5036700;28;20186;-68
2023/05/12 03:22:08;;;;;;;5.70;3.47;;;10.00;99.90;;;;;;5043931;28;20186;-68
2023/05/12 03:24:34;;;;;;;5.10;3.30;;;10.10;99.90;;;;;;5042498;28;20184;-68
2023/05/12 03:27:00;;;;;;;4.60;2.70;;;10.00;99.90;;;;;;5034519;28;20467;-68
2023/05/12 03:29:25;;;;;;;5.50;3.30;;;10.00;99.90;;;;;;5035632;28;20217;-68
2023/05/12 03:31:51;;;;;;;6.33;3.60;;;10.10;99.90;;;;;;5047169;28;20648;-68
2023/05/12 03:34:17;;;;;;;7.33;3.90;;;10.10;99.90;;;;;;5050498;28;20685;-68
2023/05/12 03:36:43;;;;;;;7.20;3.70;;;10.10;99.90;;;;;;5050538;28;20725;-68
2023/05/12 03:39:09;;;;;;;6.30;3.60;;;10.10;99.90;;;;;;5040673;28;20186;-68
2023/05/12 03:41:35;;;;;;;6.53;3.90;;;10.10;99.90;;;;;;5034198;28;20212;-68
2023/05/12 03:44:01;;;;;;;5.17;3.00;;;10.10;99.90;;;;;;5050985;28;20189;-70
2023/05/12 03:46:27;;;;;;;5.60;3.03;;;10.10;99.90;;;;;;5018018;28;20441;-69
2023/05/12 03:48:53;;;;;;;6.53;3.30;;;10.10;99.90;;;;;;5039947;28;20486;-69
2023/05/12 03:51:18;;;;;;;6.83;3.93;;;10.10;99.90;;;;;;5050305;28;20216;-69
2023/05/12 03:53:46;;;;;;;8.20;4.20;;;10.10;99.90;;;;;;5050564;28;20674;-69
2023/05/12 03:56:12;;;;;;;8.20;5.30;;;10.10;99.90;;;;;;5050410;28;20184;-69
2023/05/12 03:58:38;;;;;;;17.67;5.43;;;10.10;99.90;;;;;;5036420;28;20512;-69
2023/05/12 04:01:04;;;;;;;30.17;6.30;;;10.10;99.90;;;;;;5041559;28;20261;-69
2023/05/12 04:03:30;;;;;;;11.83;6.47;;;10.10;99.90;;;;;;5050490;28;20210;-69
2023/05/12 04:06:02;;;;;;;10.93;5.83;;;10.10;99.90;;;;;;5032899;28;20224;-69
2023/05/12 04:08:29;;;;;;;12.07;6.40;;;10.10;99.90;;;;;;5041500;28;20464;-69
2023/05/12 04:10:56;;;;;;;14.50;5.63;;;10.10;99.90;;;;;;5050409;28;20503;-69
2023/05/12 04:13:22;;;;;;;11.43;6.13;;;10.20;99.90;;;;;;5050099;28;20424;-69
2023/05/12 04:15:48;;;;;;;12.23;6.27;;;10.20;99.90;;;;;;5035893;28;20414;-69
2023/05/12 04:18:14;;;;;;;11.57;6.40;;;10.20;99.90;;;;;;5027405;28;20186;-69
2023/05/12 04:20:40;;;;;;;10.17;5.73;;;10.10;99.90;;;;;;5041422;28;20233;-69
2023/05/12 04:23:05;;;;;;;9.43;5.30;;;10.30;99.90;;;;;;5050064;28;21305;-69
2023/05/12 04:25:31;;;;;;;9.67;6.43;;;10.20;99.90;;;;;;5049785;28;20243;-69
2023/05/12 04:27:57;;;;;;;9.43;5.30;;;10.30;99.90;;;;;;5050303;28;20209;-69
2023/05/12 04:30:22;;;;;;;10.33;5.57;;;10.30;99.90;;;;;;5042768;28;20193;-69
2023/05/12 04:32:48;;;;;;;17.50;6.70;;;10.20;99.90;;;;;;5037691;28;20611;-69
2023/05/12 04:35:14;;;;;;;12.10;6.87;;;10.20;99.90;;;;;;5048377;28;20240;-69
2023/05/12 04:37:40;;;;;;;14.57;7.07;;;10.20;99.90;;;;;;5050241;28;20197;-69
2023/05/12 04:40:07;;;;;;;12.33;5.93;;;10.20;99.90;;;;;;5050132;28;20182;-69
2023/05/12 04:42:32;;;;;;;12.17;6.93;;;10.20;99.90;;;;;;5049734;28;20194;-69
2023/05/12 04:44:58;;;;;;;12.60;6.17;;;10.10;99.90;;;;;;5048756;28;20820;-69
2023/05/12 04:47:24;;;;;;;15.00;7.27;;;10.20;99.90;;;;;;5049749;28;20682;-69
2023/05/12 04:49:49;;;;;;;16.67;8.40;;;10.30;99.90;;;;;;5049843;28;20496;-69
2023/05/12 04:52:15;;;;;;;30.93;7.27;;;10.20;99.90;;;;;;5049770;28;20231;-69
2023/05/12 04:54:40;;;;;;;14.07;7.20;;;10.30;99.90;;;;;;5046800;28;20971;-69
2023/05/12 04:57:07;;;;;;;9.20;6.40;;;10.30;99.90;;;;;;5045538;28;20232;-69
2023/05/12 04:59:32;;;;;;;11.57;6.17;;;10.30;99.90;;;;;;5034699;28;20192;-69
2023/05/12 05:01:58;;;;;;;13.47;6.87;;;10.30;99.90;;;;;;5049762;28;20428;-69
2023/05/12 05:04:24;;;;;;;12.50;7.13;;;10.30;99.90;;;;;;5052960;28;20212;-69
2023/05/12 05:06:49;;;;;;;15.60;8.57;;;10.40;99.90;;;;;;5053368;28;20651;-69
2023/05/12 05:09:15;;;;;;;15.80;6.80;;;10.40;99.90;;;;;;5053312;28;20216;-69
2023/05/12 05:11:41;;;;;;;13.80;8.43;;;10.50;99.90;;;;;;5053032;28;20182;-69
2023/05/12 05:14:06;;;;;;;11.80;6.90;;;10.50;99.90;;;;;;5052989;28;20876;-69
2023/05/12 05:16:32;;;;;;;12.30;6.13;;;10.50;99.90;;;;;;5029552;28;20198;-69
2023/05/12 05:18:57;;;;;;;16.57;7.67;;;10.50;99.90;;;;;;5028055;28;20500;-69
2023/05/12 05:21:23;;;;;;;10.23;5.97;;;10.60;99.90;;;;;;5023103;28;20190;-69
2023/05/12 05:23:49;;;;;;;12.00;7.03;;;10.60;99.90;;;;;;5039781;28;20194;-69
2023/05/12 05:26:14;;;;;;;11.47;6.20;;;10.60;99.90;;;;;;5036438;28;20190;-69
2023/05/12 05:28:40;;;;;;;12.87;6.93;;;10.70;99.90;;;;;;5042600;28;20479;-69
2023/05/12 05:31:06;;;;;;;16.10;6.80;;;10.70;99.90;;;;;;5045910;28;20199;-69
2023/05/12 05:33:31;;;;;;;9.63;5.53;;;10.80;99.90;;;;;;5049369;28;20213;-69
2023/05/12 05:35:57;;;;;;;10.87;5.90;;;10.80;99.90;;;;;;5044675;28;20419;-69
2023/05/12 05:38:23;;;;;;;12.47;6.60;;;10.80;99.90;;;;;;5052819;28;20517;-69
2023/05/12 05:40:48;;;;;;;9.33;5.60;;;11.00;99.90;;;;;;5053130;28;20204;-69
2023/05/12 05:43:14;;;;;;;10.57;6.73;;;10.90;99.90;;;;;;5052156;28;20213;-69
2023/05/12 05:45:40;;;;;;;12.07;5.43;;;10.90;99.90;;;;;;5051364;28;20189;-69
2023/05/12 05:48:05;;;;;;;13.77;7.30;;;10.90;99.90;;;;;;5052499;28;20684;-69
2023/05/12 05:50:31;;;;;;;10.23;5.90;;;10.90;99.90;;;;;;5052262;28;20631;-69
2023/05/12 05:52:57;;;;;;;13.70;6.70;;;11.00;99.90;;;;;;5052053;28;20186;-69
2023/05/12 05:55:22;;;;;;;10.27;6.53;;;11.00;99.90;;;;;;5052455;28;20181;-69
2023/05/12 05:57:48;;;;;;;14.77;5.80;;;11.00;99.90;;;;;;5038258;28;20224;-69
2023/05/12 06:00:14;;;;;;;13.57;7.00;;;11.00;99.90;;;;;;5024335;28;20690;-69
2023/05/12 06:02:40;;;;;;;14.10;6.70;;;11.00;99.90;;;;;;5050168;28;20240;-69
2023/05/12 06:05:07;;;;;;;10.47;5.07;;;10.90;99.90;;;;;;5043756;28;20429;-69
2023/05/12 06:07:33;;;;;;;6.13;4.57;;;11.00;99.90;;;;;;5050703;28;20543;-69
2023/05/12 06:09:58;;;;;;;7.03;5.53;;;11.10;99.90;;;;;;5052241;28;20905;-69
2023/05/12 06:12:24;;;;;;;9.83;5.53;;;11.00;99.90;;;;;;5038091;28;20432;-69
2023/05/12 06:14:50;;;;;;;20.37;5.20;;;11.10;99.90;;;;;;5030735;28;20182;-69
2023/05/12 06:17:16;;;;;;;7.63;4.90;;;11.20;99.90;;;;;;5029582;28;20650;-69
2023/05/12 06:19:46;;;;;;;13.10;6.40;;;11.20;99.90;;;;;;5039017;28;20183;-69
2023/05/12 06:22:12;;;;;;;7.30;4.80;;;11.30;99.90;;;;;;5034744;28;20431;-69
2023/05/12 06:24:38;;;;;;;7.97;4.50;;;11.20;99.90;;;;;;5030913;28;20889;-69
2023/05/12 06:27:03;;;;;;;10.30;3.83;;;11.30;99.90;;;;;;5045305;28;20509;-69
2023/05/12 06:29:29;;;;;;;8.40;4.50;;;11.50;99.90;;;;;;5044769;28;20185;-69
2023/05/12 06:31:54;;;;;;;6.93;4.37;;;11.60;99.90;;;;;;5049328;28;20635;-69
2023/05/12 06:34:20;;;;;;;6.30;4.10;;;11.50;99.90;;;;;;5050210;28;20289;-69
2023/05/12 06:36:45;;;;;;;7.40;3.97;;;11.50;99.90;;;;;;5033833;28;20529;-69
2023/05/12 06:39:11;;;;;;;6.33;3.33;;;11.50;99.90;;;;;;5042008;28;20200;-69
2023/05/12 06:41:37;;;;;;;4.30;3.13;;;11.60;99.90;;;;;;5050036;28;20190;-69
2023/05/12 06:44:03;;;;;;;8.03;3.83;;;11.40;99.90;;;;;;5040719;28;20833;-69
2023/05/12 06:46:28;;;;;;;4.57;3.30;;;11.60;99.90;;;;;;5041752;28;20205;-70
2023/05/12 06:48:54;;;;;;;5.00;3.33;;;11.60;99.90;;;;;;5045014;28;20215;-69
2023/05/12 06:51:20;;;;;;;6.57;3.77;;;11.60;99.90;;;;;;5043110;28;20639;-69
2023/05/12 06:53:45;;;;;;;4.73;3.20;;;11.50;99.90;;;;;;5043144;28;20269;-69
2023/05/12 06:56:15;;;;;;;3.77;2.23;;;11.40;99.90;;;;;;5041318;28;20182;-69
2023/05/12 06:58:44;;;;;;;7.03;3.30;;;11.60;99.90;;;;;;5025597;28;20557;-69
2023/05/12 07:01:10;;;;;;;6.37;3.57;;;11.60;99.90;;;;;;5030997;28;20448;-69
2023/05/12 07:03:35;;;;;;;7.23;4.33;;;11.80;99.90;;;;;;5031302;28;20432;-69
2023/05/12 07:06:01;;;;;;;5.10;3.33;;;11.90;99.90;;;;;;5032805;28;20189;-69
2023/05/12 07:08:26;;;;;;;9.20;4.30;;;11.80;99.90;;;;;;5036666;28;20649;-69
2023/05/12 07:10:52;;;;;;;4.80;3.40;;;11.90;99.90;;;;;;5018443;28;20283;-69
2023/05/12 07:13:18;;;;;;;7.67;3.47;;;12.10;99.90;;;;;;5025207;28;20755;-69
2023/05/12 07:15:43;;;;;;;5.87;3.53;;;12.20;99.90;;;;;;5023032;28;20187;-69
2023/05/12 07:18:09;;;;;;;8.37;4.10;;;12.50;99.90;;;;;;5017135;28;20189;-69
2023/05/12 07:20:35;;;;;;;6.63;3.17;;;12.50;99.90;;;;;;5018902;28;20191;-69
2023/05/12 07:23:00;;;;;;;3.80;2.93;;;12.50;99.90;;;;;;5030409;28;20198;-69
2023/05/12 07:25:27;;;;;;;4.10;2.53;;;12.50;99.90;;;;;;5017591;28;20199;-69
2023/05/12 07:27:52;;;;;;;5.67;3.27;;;12.50;99.90;;;;;;5019737;28;20486;-69
2023/05/12 07:30:19;;;;;;;4.97;2.80;;;12.80;99.90;;;;;;5015831;28;20441;-69
2023/05/12 07:32:45;;;;;;;3.93;2.40;;;12.80;99.90;;;;;;5022525;28;20249;-69
2023/05/12 07:35:11;;;;;;;4.57;2.10;;;13.00;99.90;;;;;;5016078;28;20432;-70
2023/05/12 07:37:37;;;;;;;4.53;3.00;;;13.50;99.90;;;;;;5024423;28;20437;-67
2023/05/12 07:40:03;;;;;;;2.57;1.83;;;13.90;99.90;;;;;;5025920;28;20447;-69
2023/05/12 07:42:29;;;;;;;4.43;2.50;;;14.00;99.90;;;;;;5032677;28;20182;-69
2023/05/12 07:44:54;;;;;;;5.50;2.00;;;14.00;99.90;;;;;;5030415;28;20445;-69
2023/05/12 07:47:20;;;;;;;3.87;2.10;;;14.00;99.90;;;;;;5025898;28;20214;-69
2023/05/12 07:49:46;;;;;;;21.63;2.37;;;13.50;99.90;;;;;;5025493;28;20262;-69
2023/05/12 07:52:11;;;;;;;3.20;1.87;;;13.60;99.90;;;;;;5041075;28;20181;-69
2023/05/12 07:54:37;;;;;;;3.77;2.00;;;13.50;99.90;;;;;;5020330;28;20190;-69
2023/05/12 07:57:03;;;;;;;7.83;3.47;;;13.60;99.90;;;;;;5027308;28;20580;-69
2023/05/12 07:59:28;;;;;;;4.00;2.30;;;13.50;99.90;;;;;;5023892;28;20678;-69
2023/05/12 08:01:54;;;;;;;3.87;2.10;;;13.40;99.90;;;;;;5039168;28;20173;-69
2023/05/12 08:04:20;;;;;;;4.53;2.50;;;13.30;99.90;;;;;;5020441;28;21019;-69
2023/05/12 08:06:45;;;;;;;4.33;2.27;;;13.60;99.90;;;;;;5026805;28;20217;-71
2023/05/12 08:09:11;;;;;;;6.97;2.13;;;13.40;99.90;;;;;;5028310;28;20182;-71
2023/05/12 08:11:37;;;;;;;7.23;2.20;;;13.50;99.90;;;;;;5029591;28;20863;-73
2023/05/12 08:14:02;;;;;;;2.40;1.80;;;13.30;99.90;;;;;;5033519;28;20686;-72
2023/05/12 08:16:28;;;;;;;4.80;1.50;;;13.30;99.90;;;;;;5032433;28;20686;-72
2023/05/12 08:18:54;;;;;;;2.57;1.43;;;13.40;99.90;;;;;;5031668;28;20627;-68
2023/05/12 08:21:20;;;;;;;1.80;1.00;;;13.20;99.90;;;;;;5030122;28;20201;-68
2023/05/12 08:23:45;;;;;;;2.20;1.40;;;13.30;99.90;;;;;;5038534;28;20335;-69
2023/05/12 08:26:11;;;;;;;2.60;1.60;;;13.50;99.90;;;;;;5025448;28;20194;-68
2023/05/12 08:28:36;;;;;;;2.13;1.40;;;13.50;99.90;;;;;;5028145;28;20238;-69
2023/05/12 08:31:02;;;;;;;2.20;1.70;;;13.50;99.90;;;;;;5032353;28;20194;-69
2023/05/12 08:33:28;;;;;;;2.07;1.07;;;13.80;99.90;;;;;;5032158;28;20208;-71
2023/05/12 08:35:54;;;;;;;5.63;1.77;;;14.10;99.90;;;;;;5033177;28;20169;-67
2023/05/12 08:38:20;;;;;;;2.33;1.40;;;14.50;99.90;;;;;;5045170;28;20201;-66
2023/05/12 08:40:53;;;;;;;3.57;1.70;;;14.20;99.90;;;;;;5032699;28;20194;-70
2023/05/12 08:43:25;;;;;;;1.90;1.10;;;14.50;99.90;;;;;;5028993;28;20570;-70
2023/05/12 08:45:56;;;;;;;3.37;1.70;;;14.70;99.90;;;;;;5036893;28;20409;-70
2023/05/12 08:48:23;;;;;;;2.03;1.37;;;15.10;99.90;;;;;;5033750;28;20626;-70
2023/05/12 08:50:52;;;;;;;7.43;1.30;;;15.70;99.90;;;;;;5030324;28;20479;-70
2023/05/12 08:53:19;;;;;;;1.43;0.70;;;16.10;99.90;;;;;;5034427;28;20453;-70
2023/05/12 08:55:46;;;;;;;2.13;1.07;;;15.60;99.90;;;;;;5041133;28;20440;-70
2023/05/12 08:58:13;;;;;;;2.50;1.30;;;15.60;99.90;;;;;;5035103;28;20421;-70
2023/05/12 09:00:40;;;;;;;1.50;0.73;;;15.60;99.90;;;;;;5034577;28;20458;-70
2023/05/12 09:03:06;;;;;;;1.37;0.67;;;15.90;99.90;;;;;;5042422;28;20448;-69
2023/05/12 09:05:33;;;;;;;2.50;1.10;;;15.90;99.90;;;;;;5041278;28;20420;-70
2023/05/12 09:08:00;;;;;;;2.37;1.10;;;15.80;99.90;;;;;;5022620;28;20467;-70
2023/05/12 09:10:27;;;;;;;2.63;1.10;;;15.60;99.90;;;;;;5038802;28;20779;-70
2023/05/12 09:13:25;;;;;;;1.60;1.00;;;15.50;99.90;;;;;;5039891;28;20416;-70
2023/05/12 09:15:55;;;;;;;1.47;0.90;;;15.30;99.90;;;;;;5030550;28;20433;-70
2023/05/12 09:18:21;;;;;;;1.67;0.87;;;15.50;99.90;;;;;;5032060;28;20449;-70
2023/05/12 09:20:46;;;;;;;1.70;0.80;;;16.00;99.90;;;;;;5038715;28;20416;-70
2023/05/12 09:23:19;;;;;;;2.47;1.33;;;15.80;99.90;;;;;;5032131;28;20233;-70
2023/05/12 09:25:45;;;;;;;2.20;1.10;;;16.00;99.90;;;;;;5021028;28;20187;-70
2023/05/12 09:28:11;;;;;;;2.10;1.17;;;15.80;99.90;;;;;;5037086;28;20468;-70
2023/05/12 09:30:41;;;;;;;3.83;1.57;;;15.20;99.90;;;;;;5016483;28;20210;-70
2023/05/12 09:33:11;;;;;;;1.60;0.80;;;15.20;99.90;;;;;;5037782;28;20265;-69
2023/05/12 09:35:41;;;;;;;1.80;1.03;;;14.90;99.90;;;;;;5031847;28;20455;-70
2023/05/12 09:38:08;;;;;;;1.70;0.90;;;15.20;99.90;;;;;;5020186;28;20432;-70
2023/05/12 09:40:35;;;;;;;1.70;0.77;;;15.10;99.90;;;;;;5025153;28;20902;-70
2023/05/12 09:43:01;;;;;;;1.50;0.87;;;15.10;99.90;;;;;;5035336;28;20425;-70
2023/05/12 09:45:27;;;;;;;1.40;0.60;;;14.90;99.90;;;;;;5025066;28;20449;-70
2023/05/12 09:47:53;;;;;;;2.33;0.97;;;14.80;99.90;;;;;;5027188;28;20974;-70
2023/05/12 09:50:18;;;;;;;7.10;1.03;;;14.70;99.90;;;;;;5035150;28;20209;-70
2023/05/12 09:52:44;;;;;;;1.80;0.90;;;15.00;99.90;;;;;;5031796;28;20217;-70
2023/05/12 09:55:11;;;;;;;1.63;0.63;;;15.00;99.90;;;;;;5031582;28;20181;-70
2023/05/12 09:57:44;;;;;;;2.83;0.80;;;15.20;99.90;;;;;;5039605;28;20630;-70
2023/05/12 10:00:18;;;;;;;1.60;0.80;;;15.50;99.90;;;;;;5042159;28;20428;-70
2023/05/12 10:02:48;;;;;;;1.60;0.80;;;15.60;99.90;;;;;;5029694;28;20475;-70
2023/05/12 10:05:18;;;;;;;1.50;0.93;;;15.30;99.90;;;;;;5029905;28;20440;-70
2023/05/12 10:07:46;;;;;;;1.70;0.90;;;15.70;99.90;;;;;;5042347;28;20452;-71
2023/05/12 10:10:16;;;;;;;1.40;0.70;;;15.80;99.90;;;;;;5022546;28;20441;-70
2023/05/12 10:12:42;;;;;;;1.97;0.80;;;16.10;99.90;;;;;;5026063;28;20425;-70
2023/05/12 10:15:09;;;;;;;1.33;0.60;;;16.20;99.90;;;;;;5022836;28;20996;-70
2023/05/12 10:17:36;;;;;;;1.57;0.70;;;16.40;99.90;;;;;;5016549;28;20211;-70
2023/05/12 10:20:06;;;;;;;2.07;0.83;;;16.60;99.90;;;;;;5031148;28;20416;-70
2023/05/12 10:22:33;;;;;;;1.50;0.73;;;16.60;99.90;;;;;;5021324;28;20437;-70
2023/05/12 10:25:01;;;;;;;1.33;0.60;;;16.30;99.50;;;;;;5032119;28;20440;-70
2023/05/12 10:27:27;;;;;;;1.40;0.67;;;16.10;99.80;;;;;;5027449;28;20457;-70
2023/05/12 10:29:54;;;;;;;1.27;0.57;;;16.10;99.90;;;;;;5031159;28;20440;-70
2023/05/12 10:32:20;;;;;;;1.30;0.60;;;16.30;99.10;;;;;;5031618;28;20436;-70
2023/05/12 10:34:46;;;;;;;1.60;0.77;;;16.20;99.90;;;;;;5029344;28;20728;-70
2023/05/12 10:37:12;;;;;;;1.40;0.70;;;16.40;99.70;;;;;;5031751;28;20289;-70
2023/05/12 10:39:49;;;;;;;1.50;0.70;;;16.40;99.10;;;;;;5034416;28;20258;-70
2023/05/12 10:42:24;;;;;;;2.70;0.80;;;16.40;98.90;;;;;;5020526;28;20502;-70
2023/05/12 10:44:52;;;;;;;1.63;0.77;;;16.20;99.90;;;;;;5029303;28;20877;-70
2023/05/12 10:47:22;;;;;;;1.50;0.80;;;16.20;99.40;;;;;;5029792;28;20518;-70
2023/05/12 10:49:54;;;;;;;2.67;1.17;;;16.00;99.90;;;;;;5042140;28;20453;-70
2023/05/12 10:52:20;;;;;;;2.03;1.00;;;16.00;99.90;;;;;;5023816;28;20433;-70
2023/05/12 10:54:46;;;;;;;1.40;0.60;;;15.60;99.90;;;;;;5038947;28;20504;-69
2023/05/12 10:57:14;;;;;;;2.33;1.00;;;15.50;99.90;;;;;;5026492;28;20301;-71
2023/05/12 10:59:50;;;;;;;2.07;0.90;;;15.20;99.90;;;;;;5023818;28;20432;-71
2023/05/12 11:02:18;;;;;;;4.70;0.97;;;15.00;99.90;;;;;;5031001;28;20821;-71
2023/05/12 11:04:58;;;;;;;1.50;0.70;;;14.80;99.90;;;;;;5034680;28;20753;-70
2023/05/12 11:07:26;;;;;;;2.17;0.90;;;14.60;99.90;;;;;;5025512;28;20896;-71
2023/05/12 11:09:53;;;;;;;1.50;0.80;;;14.50;99.90;;;;;;5034070;28;20499;-71
2023/05/12 11:12:19;;;;;;;1.83;0.97;;;14.30;99.90;;;;;;5039416;28;20795;-71
2023/05/12 11:14:46;;;;;;;1.80;0.90;;;14.30;99.90;;;;;;5025977;28;20511;-71
2023/05/12 11:17:13;;;;;;;2.83;1.00;;;14.30;99.90;;;;;;5030291;28;20451;-71
2023/05/12 11:19:39;;;;;;;2.67;1.17;;;14.30;99.90;;;;;;5019308;28;20468;-71
2023/05/12 11:22:06;;;;;;;2.70;1.03;;;14.30;99.90;;;;;;5023261;28;20436;-72
2023/05/12 11:24:32;;;;;;;2.67;1.10;;;14.50;99.90;;;;;;5035227;28;20441;-71
2023/05/12 11:26:58;;;;;;;1.50;0.70;;;14.50;99.90;;;;;;5028950;28;20465;-71
2023/05/12 11:29:23;;;;;;;3.23;0.90;;;14.50;99.90;;;;;;5029234;28;20417;-71
2023/05/12 11:31:50;;;;;;;3.40;0.80;;;14.40;99.90;;;;;;5023055;28;20261;-70
2023/05/12 11:34:23;;;;;;;3.40;0.97;;;14.40;99.90;;;;;;5021621;28;20182;-71
2023/05/12 11:36:56;;;;;;;2.03;1.03;;;14.40;99.90;;;;;;5014006;28;20867;-71
2023/05/12 11:39:25;;;;;;;3.93;1.20;;;14.40;99.90;;;;;;5018132;28;20444;-72
2023/05/12 11:41:51;;;;;;;1.50;0.80;;;14.40;99.90;;;;;;5031529;28;20439;-71
2023/05/12 11:44:22;;;;;;;1.60;0.90;;;14.60;99.90;;;;;;5035570;28;20949;-71
2023/05/12 11:46:56;;;;;;;1.63;0.60;;;14.70;99.90;;;;;;5019057;28;20222;-71
2023/05/12 11:49:22;;;;;;;1.90;0.90;;;14.80;99.90;;;;;;5015452;28;20457;-70
2023/05/12 11:51:51;;;;;;;1.70;1.00;;;14.70;99.90;;;;;;5027190;28;20420;-70
2023/05/12 11:54:16;;;;;;;3.23;1.13;;;14.70;99.90;;;;;;5027840;28;20266;-71
2023/05/12 11:56:50;;;;;;;2.10;1.27;;;14.70;99.90;;;;;;5020670;28;20536;-71
2023/05/12 11:59:33;;;;;;;2.13;1.13;;;14.70;99.90;;;;;;5027313;28;20181;-71
2023/05/12 12:02:01;;;;;;;1.70;0.90;;;14.80;99.90;;;;;;5020415;28;20958;-71
2023/05/12 12:04:40;;;;;;;2.17;1.17;;;14.70;99.90;;;;;;5033984;28;20452;-71
2023/05/12 12:07:07;;;;;;;3.90;1.20;;;14.80;99.90;;;;;;5044552;28;20538;-71
2023/05/12 12:09:37;;;;;;;2.23;1.00;;;15.00;99.90;;;;;;5042231;28;20481;-71
2023/05/12 12:12:04;;;;;;;4.50;1.00;;;14.90;99.90;;;;;;5036552;28;20781;-72
2023/05/12 12:14:31;;;;;;;2.83;1.77;;;15.00;99.90;;;;;;5024133;28;20493;-70
2023/05/12 12:16:58;;;;;;;2.07;1.10;;;15.10;99.90;;;;;;5028664;28;20445;-71
2023/05/12 12:19:26;;;;;;;3.67;1.80;;;14.90;99.90;;;;;;5026818;28;20448;-71
2023/05/12 12:21:52;;;;;;;2.63;1.30;;;14.70;99.90;;;;;;5028488;28;20896;-71
2023/05/12 12:24:18;;;;;;;3.40;1.53;;;14.70;99.90;;;;;;5045231;28;20416;-71
2023/05/12 12:26:43;;;;;;;2.37;1.20;;;14.60;99.90;;;;;;5032648;28;20440;-71
2023/05/12 12:29:09;;;;;;;2.97;1.60;;;14.40;99.90;;;;;;5033926;28;20233;-71
2023/05/12 12:31:35;;;;;;;2.33;1.30;;;14.10;99.90;;;;;;5030852;28;20662;-71
2023/05/12 12:34:01;;;;;;;2.53;1.10;;;14.00;99.90;;;;;;5028642;28;20178;-71
2023/05/12 12:36:27;;;;;;;2.93;1.53;;;14.10;99.90;;;;;;5036773;28;20202;-71
2023/05/12 12:38:52;;;;;;;2.00;1.20;;;14.10;99.90;;;;;;5030855;28;20491;-71
2023/05/12 12:41:18;;;;;;;1.60;0.90;;;14.10;99.90;;;;;;5036717;28;20217;-71
2023/05/12 12:43:44;;;;;;;2.47;1.10;;;14.00;99.90;;;;;;5047824;28;20188;-71